sensor_id;sensor_type;location;lat;lon;timestamp;P1;durP1;ratioP1;P2;durP2;ratioP2
55794;SDS011;41716;51.910;4.430;2023-05-13T00:00:22;9.95;;;7.35;;
55794;SDS011;41716;51.910;4.430;2023-05-13T00:05:23;10.97;;;7.50;;
55794;SDS011;41716;51.910;4.430;2023-05-13T00:10:25;8.77;;;6.88;;
55794;SDS011;41716;51.910;4.430;2023-05-13T00:15:28;10.45;;;6.15;;
55794;SDS011;41716;51.910;4.430;2023-05-13T00:20:30;9.80;;;6.00;;
55794;SDS011;41716;51.910;4.430;2023-05-13T00:25:32;8.32;;;6.00;;
55794;SDS011;41716;51.910;4.430;2023-05-13T00:30:35;8.00;;;5.65;;
55794;SDS011;41716;51.910;4.430;2023-05-13T00:35:37;10.00;;;4.68;;
55794;SDS011;41716;51.910;4.430;2023-05-13T00:40:39;12.05;;;4.38;;
55794;SDS011;41716;51.910;4.430;2023-05-13T00:45:43;7.20;;;3.85;;
55794;SDS011;41716;51.910;4.430;2023-05-13T00:50:45;5.20;;;3.60;;
55794;SDS011;41716;51.910;4.430;2023-05-13T00:55:47;6.00;;;3.20;;
55794;SDS011;41716;51.910;4.430;2023-05-13T01:00:53;4.13;;;2.90;;
55794;SDS011;41716;51.910;4.430;2023-05-13T01:06:03;5.38;;;3.05;;
55794;SDS011;41716;51.910;4.430;2023-05-13T01:11:12;4.43;;;2.22;;
55794;SDS011;41716;51.910;4.430;2023-05-13T01:16:20;4.85;;;2.53;;
55794;SDS011;41716;51.910;4.430;2023-05-13T01:21:28;4.32;;;1.92;;
55794;SDS011;41716;51.910;4.430;2023-05-13T01:26:35;4.35;;;2.30;;
55794;SDS011;41716;51.910;4.430;2023-05-13T01:31:37;3.85;;;2.42;;
55794;SDS011;41716;51.910;4.430;2023-05-13T01:36:43;4.22;;;2.40;;
55794;SDS011;41716;51.910;4.430;2023-05-13T01:41:46;4.20;;;2.47;;
55794;SDS011;41716;51.910;4.430;2023-05-13T01:46:47;3.85;;;2.45;;
55794;SDS011;41716;51.910;4.430;2023-05-13T01:51:51;5.10;;;2.20;;
55794;SDS011;41716;51.910;4.430;2023-05-13T01:56:52;3.93;;;2.40;;
55794;SDS011;41716;51.910;4.430;2023-05-13T02:01:54;4.55;;;2.60;;
55794;SDS011;41716;51.910;4.430;2023-05-13T02:06:57;4.60;;;2.75;;
55794;SDS011;41716;51.910;4.430;2023-05-13T02:11:59;6.17;;;3.27;;
55794;SDS011;41716;51.910;4.430;2023-05-13T02:17:01;5.22;;;3.28;;
55794;SDS011;41716;51.910;4.430;2023-05-13T02:22:04;5.57;;;3.45;;
55794;SDS011;41716;51.910;4.430;2023-05-13T02:27:06;5.07;;;3.50;;
55794;SDS011;41716;51.910;4.430;2023-05-13T02:32:07;5.93;;;3.97;;
55794;SDS011;41716;51.910;4.430;2023-05-13T02:37:10;6.40;;;3.70;;
55794;SDS011;41716;51.910;4.430;2023-05-13T02:42:12;6.27;;;3.40;;
55794;SDS011;41716;51.910;4.430;2023-05-13T02:47:14;5.53;;;3.53;;
55794;SDS011;41716;51.910;4.430;2023-05-13T02:52:17;5.97;;;3.75;;
55794;SDS011;41716;51.910;4.430;2023-05-13T02:57:19;4.67;;;3.37;;
55794;SDS011;41716;51.910;4.430;2023-05-13T03:02:20;5.15;;;3.72;;
55794;SDS011;41716;51.910;4.430;2023-05-13T03:07:23;6.18;;;3.83;;
55794;SDS011;41716;51.910;4.430;2023-05-13T03:12:25;6.23;;;4.20;;
55794;SDS011;41716;51.910;4.430;2023-05-13T03:17:27;6.28;;;3.97;;
55794;SDS011;41716;51.910;4.430;2023-05-13T03:22:31;7.45;;;3.80;;
55794;SDS011;41716;51.910;4.430;2023-05-13T03:27:32;5.87;;;3.70;;
55794;SDS011;41716;51.910;4.430;2023-05-13T03:32:34;6.43;;;3.90;;
55794;SDS011;41716;51.910;4.430;2023-05-13T03:37:37;8.55;;;3.72;;
55794;SDS011;41716;51.910;4.430;2023-05-13T03:42:39;6.80;;;3.80;;
55794;SDS011;41716;51.910;4.430;2023-05-13T03:47:40;7.60;;;3.97;;
55794;SDS011;41716;51.910;4.430;2023-05-13T03:52:43;8.02;;;3.55;;
55794;SDS011;41716;51.910;4.430;2023-05-13T03:57:46;10.07;;;3.28;;
55794;SDS011;41716;51.910;4.430;2023-05-13T04:02:48;5.80;;;3.80;;
55794;SDS011;41716;51.910;4.430;2023-05-13T04:07:51;5.00;;;3.80;;
55794;SDS011;41716;51.910;4.430;2023-05-13T04:12:53;5.33;;;3.70;;
55794;SDS011;41716;51.910;4.430;2023-05-13T04:17:55;4.55;;;3.55;;
55794;SDS011;41716;51.910;4.430;2023-05-13T04:22:58;6.75;;;4.00;;
55794;SDS011;41716;51.910;4.430;2023-05-13T04:28:00;6.25;;;4.00;;
55794;SDS011;41716;51.910;4.430;2023-05-13T04:33:02;5.72;;;3.90;;
55794;SDS011;41716;51.910;4.430;2023-05-13T04:38:05;6.40;;;4.38;;
55794;SDS011;41716;51.910;4.430;2023-05-13T04:43:07;8.23;;;4.83;;
55794;SDS011;41716;51.910;4.430;2023-05-13T04:48:09;7.45;;;4.85;;
55794;SDS011;41716;51.910;4.430;2023-05-13T04:53:12;8.52;;;4.50;;
55794;SDS011;41716;51.910;4.430;2023-05-13T04:58:14;9.63;;;5.30;;
55794;SDS011;41716;51.910;4.430;2023-05-13T05:03:16;11.10;;;5.30;;
55794;SDS011;41716;51.910;4.430;2023-05-13T05:08:19;9.57;;;5.28;;
55794;SDS011;41716;51.910;4.430;2023-05-13T05:13:20;10.83;;;5.80;;
55794;SDS011;41716;51.910;4.430;2023-05-13T05:18:22;8.05;;;5.38;;
55794;SDS011;41716;51.910;4.430;2023-05-13T05:23:25;9.05;;;5.85;;
55794;SDS011;41716;51.910;4.430;2023-05-13T05:28:27;8.48;;;6.13;;
55794;SDS011;41716;51.910;4.430;2023-05-13T05:33:28;10.15;;;6.28;;
55794;SDS011;41716;51.910;4.430;2023-05-13T05:38:31;10.57;;;6.47;;
55794;SDS011;41716;51.910;4.430;2023-05-13T05:43:33;10.70;;;6.67;;
55794;SDS011;41716;51.910;4.430;2023-05-13T05:48:35;11.05;;;6.18;;
55794;SDS011;41716;51.910;4.430;2023-05-13T05:53:38;12.80;;;6.50;;
55794;SDS011;41716;51.910;4.430;2023-05-13T05:58:41;8.98;;;6.07;;
55794;SDS011;41716;51.910;4.430;2023-05-13T06:03:42;10.30;;;6.38;;
55794;SDS011;41716;51.910;4.430;2023-05-13T06:08:46;11.90;;;6.43;;
55794;SDS011;41716;51.910;4.430;2023-05-13T06:13:47;11.23;;;6.60;;
55794;SDS011;41716;51.910;4.430;2023-05-13T06:18:50;11.68;;;6.00;;
55794;SDS011;41716;51.910;4.430;2023-05-13T06:23:53;22.92;;;9.25;;
55794;SDS011;41716;51.910;4.430;2023-05-13T06:28:54;10.07;;;5.80;;
55794;SDS011;41716;51.910;4.430;2023-05-13T06:33:56;8.23;;;5.70;;
55794;SDS011;41716;51.910;4.430;2023-05-13T06:38:59;12.30;;;6.40;;
55794;SDS011;41716;51.910;4.430;2023-05-13T06:44:01;8.70;;;5.43;;
55794;SDS011;41716;51.910;4.430;2023-05-13T06:49:02;8.38;;;6.15;;
55794;SDS011;41716;51.910;4.430;2023-05-13T06:54:05;9.23;;;6.00;;
55794;SDS011;41716;51.910;4.430;2023-05-13T06:59:08;10.75;;;6.20;;
55794;SDS011;41716;51.910;4.430;2023-05-13T07:04:10;9.35;;;5.93;;
55794;SDS011;41716;51.910;4.430;2023-05-13T07:09:13;10.30;;;5.55;;
55794;SDS011;41716;51.910;4.430;2023-05-13T07:14:15;9.97;;;5.73;;
55794;SDS011;41716;51.910;4.430;2023-05-13T07:19:17;12.23;;;6.53;;
55794;SDS011;41716;51.910;4.430;2023-05-13T07:24:20;9.18;;;5.90;;
55794;SDS011;41716;51.910;4.430;2023-05-13T07:29:21;8.68;;;6.10;;
55794;SDS011;41716;51.910;4.430;2023-05-13T07:34:24;8.98;;;5.30;;
55794;SDS011;41716;51.910;4.430;2023-05-13T07:39:27;9.10;;;5.47;;
55794;SDS011;41716;51.910;4.430;2023-05-13T07:44:28;6.53;;;5.07;;
55794;SDS011;41716;51.910;4.430;2023-05-13T07:49:30;6.72;;;4.57;;
55794;SDS011;41716;51.910;4.430;2023-05-13T07:54:33;10.30;;;4.45;;
55794;SDS011;41716;51.910;4.430;2023-05-13T07:59:35;6.47;;;4.43;;
55794;SDS011;41716;51.910;4.430;2023-05-13T08:04:36;6.50;;;4.68;;
55794;SDS011;41716;51.910;4.430;2023-05-13T08:09:40;9.98;;;4.35;;
55794;SDS011;41716;51.910;4.430;2023-05-13T08:14:41;8.27;;;4.33;;
55794;SDS011;41716;51.910;4.430;2023-05-13T08:19:43;5.85;;;4.20;;
55794;SDS011;41716;51.910;4.430;2023-05-13T08:24:46;9.82;;;3.90;;
55794;SDS011;41716;51.910;4.430;2023-05-13T08:29:47;8.35;;;4.13;;
55794;SDS011;41716;51.910;4.430;2023-05-13T08:34:49;8.27;;;4.20;;
55794;SDS011;41716;51.910;4.430;2023-05-13T08:39:52;6.57;;;3.90;;
55794;SDS011;41716;51.910;4.430;2023-05-13T08:44:56;7.80;;;4.03;;
55794;SDS011;41716;51.910;4.430;2023-05-13T08:49:58;6.50;;;3.88;;
55794;SDS011;41716;51.910;4.430;2023-05-13T08:55:01;8.10;;;3.80;;
55794;SDS011;41716;51.910;4.430;2023-05-13T09:00:05;4.70;;;3.38;;
55794;SDS011;41716;51.910;4.430;2023-05-13T09:05:08;5.03;;;3.33;;
55794;SDS011;41716;51.910;4.430;2023-05-13T09:10:11;6.88;;;3.85;;
55794;SDS011;41716;51.910;4.430;2023-05-13T09:15:13;7.05;;;3.55;;
55794;SDS011;41716;51.910;4.430;2023-05-13T09:20:16;7.15;;;3.78;;
55794;SDS011;41716;51.910;4.430;2023-05-13T09:25:21;7.27;;;3.40;;
55794;SDS011;41716;51.910;4.430;2023-05-13T09:30:24;4.78;;;2.80;;
55794;SDS011;41716;51.910;4.430;2023-05-13T09:35:26;5.43;;;3.33;;
55794;SDS011;41716;51.910;4.430;2023-05-13T09:40:32;5.28;;;3.50;;
55794;SDS011;41716;51.910;4.430;2023-05-13T09:45:34;4.57;;;3.07;;
55794;SDS011;41716;51.910;4.430;2023-05-13T09:50:45;5.47;;;2.78;;
55794;SDS011;41716;51.910;4.430;2023-05-13T09:55:50;6.80;;;2.60;;
55794;SDS011;41716;51.910;4.430;2023-05-13T10:00:53;4.30;;;2.67;;
55794;SDS011;41716;51.910;4.430;2023-05-13T10:05:55;6.80;;;2.90;;
55794;SDS011;41716;51.910;4.430;2023-05-13T10:16:03;4.47;;;2.88;;
55794;SDS011;41716;51.910;4.430;2023-05-13T10:21:05;5.47;;;2.40;;
55794;SDS011;41716;51.910;4.430;2023-05-13T10:26:08;5.57;;;3.03;;
55794;SDS011;41716;51.910;4.430;2023-05-13T10:31:11;5.28;;;2.97;;
55794;SDS011;41716;51.910;4.430;2023-05-13T10:36:18;6.00;;;3.10;;
55794;SDS011;41716;51.910;4.430;2023-05-13T10:41:48;5.45;;;2.63;;
55794;SDS011;41716;51.910;4.430;2023-05-13T10:47:17;5.45;;;3.13;;
55794;SDS011;41716;51.910;4.430;2023-05-13T10:52:19;7.15;;;2.67;;
55794;SDS011;41716;51.910;4.430;2023-05-13T10:57:27;9.57;;;2.97;;
55794;SDS011;41716;51.910;4.430;2023-05-13T11:02:30;6.28;;;3.08;;
55794;SDS011;41716;51.910;4.430;2023-05-13T11:07:32;6.40;;;3.17;;
55794;SDS011;41716;51.910;4.430;2023-05-13T11:12:39;6.35;;;3.00;;
55794;SDS011;41716;51.910;4.430;2023-05-13T11:17:42;8.50;;;3.43;;
55794;SDS011;41716;51.910;4.430;2023-05-13T11:22:45;9.20;;;3.85;;
55794;SDS011;41716;51.910;4.430;2023-05-13T11:27:48;10.98;;;3.58;;
55794;SDS011;41716;51.910;4.430;2023-05-13T11:32:53;11.50;;;4.38;;
55794;SDS011;41716;51.910;4.430;2023-05-13T11:37:56;10.23;;;3.60;;
55794;SDS011;41716;51.910;4.430;2023-05-13T11:43:01;8.15;;;3.97;;
55794;SDS011;41716;51.910;4.430;2023-05-13T11:48:16;10.52;;;3.72;;
55794;SDS011;41716;51.910;4.430;2023-05-13T11:53:18;9.02;;;3.80;;
55794;SDS011;41716;51.910;4.430;2023-05-13T11:58:23;9.18;;;4.07;;
55794;SDS011;41716;51.910;4.430;2023-05-13T12:03:26;12.43;;;3.90;;
55794;SDS011;41716;51.910;4.430;2023-05-13T12:08:28;16.50;;;7.45;;
55794;SDS011;41716;51.910;4.430;2023-05-13T12:13:31;7.57;;;3.58;;
55794;SDS011;41716;51.910;4.430;2023-05-13T12:18:33;6.83;;;3.53;;
55794;SDS011;41716;51.910;4.430;2023-05-13T12:23:37;11.32;;;4.30;;
55794;SDS011;41716;51.910;4.430;2023-05-13T12:33:42;8.68;;;3.90;;
55794;SDS011;41716;51.910;4.430;2023-05-13T12:38:52;6.35;;;4.13;;
55794;SDS011;41716;51.910;4.430;2023-05-13T12:43:57;9.13;;;4.03;;
55794;SDS011;41716;51.910;4.430;2023-05-13T12:49:00;6.72;;;3.17;;
55794;SDS011;41716;51.910;4.430;2023-05-13T12:54:03;7.93;;;3.60;;
55794;SDS011;41716;51.910;4.430;2023-05-13T12:59:06;8.18;;;3.83;;
55794;SDS011;41716;51.910;4.430;2023-05-13T13:04:08;7.85;;;3.55;;
55794;SDS011;41716;51.910;4.430;2023-05-13T13:09:10;6.63;;;3.42;;
55794;SDS011;41716;51.910;4.430;2023-05-13T13:14:13;9.13;;;3.70;;
55794;SDS011;41716;51.910;4.430;2023-05-13T13:19:14;13.03;;;4.00;;
55794;SDS011;41716;51.910;4.430;2023-05-13T13:24:16;8.23;;;3.78;;
55794;SDS011;41716;51.910;4.430;2023-05-13T13:29:19;8.25;;;3.85;;
55794;SDS011;41716;51.910;4.430;2023-05-13T13:34:20;6.80;;;3.63;;
55794;SDS011;41716;51.910;4.430;2023-05-13T13:39:22;6.63;;;3.22;;
55794;SDS011;41716;51.910;4.430;2023-05-13T13:44:25;9.40;;;4.18;;
55794;SDS011;41716;51.910;4.430;2023-05-13T13:49:27;9.40;;;3.43;;
55794;SDS011;41716;51.910;4.430;2023-05-13T13:54:28;10.18;;;3.92;;
55794;SDS011;41716;51.910;4.430;2023-05-13T13:59:31;8.75;;;3.95;;
55794;SDS011;41716;51.910;4.430;2023-05-13T14:04:33;13.67;;;4.00;;
55794;SDS011;41716;51.910;4.430;2023-05-13T14:09:35;8.50;;;3.55;;
55794;SDS011;41716;51.910;4.430;2023-05-13T14:14:38;7.57;;;3.42;;
55794;SDS011;41716;51.910;4.430;2023-05-13T14:19:40;9.53;;;4.00;;
55794;SDS011;41716;51.910;4.430;2023-05-13T14:24:42;7.68;;;3.53;;
55794;SDS011;41716;51.910;4.430;2023-05-13T14:34:48;10.27;;;3.67;;
55794;SDS011;41716;51.910;4.430;2023-05-13T14:39:50;9.40;;;3.50;;
55794;SDS011;41716;51.910;4.430;2023-05-13T14:44:53;7.78;;;3.83;;
55794;SDS011;41716;51.910;4.430;2023-05-13T14:49:55;7.40;;;3.60;;
55794;SDS011;41716;51.910;4.430;2023-05-13T14:54:57;12.10;;;4.05;;
55794;SDS011;41716;51.910;4.430;2023-05-13T15:00:00;5.40;;;3.30;;
55794;SDS011;41716;51.910;4.430;2023-05-13T15:05:02;9.57;;;3.63;;
55794;SDS011;41716;51.910;4.430;2023-05-13T15:10:04;11.32;;;4.18;;
55794;SDS011;41716;51.910;4.430;2023-05-13T15:15:09;8.63;;;3.75;;
55794;SDS011;41716;51.910;4.430;2023-05-13T15:20:11;11.43;;;4.18;;
55794;SDS011;41716;51.910;4.430;2023-05-13T15:25:13;7.20;;;3.97;;
55794;SDS011;41716;51.910;4.430;2023-05-13T15:30:16;10.13;;;3.97;;
55794;SDS011;41716;51.910;4.430;2023-05-13T15:35:18;10.43;;;4.00;;
55794;SDS011;41716;51.910;4.430;2023-05-13T15:40:19;11.48;;;4.72;;
55794;SDS011;41716;51.910;4.430;2023-05-13T15:45:23;11.75;;;4.05;;
55794;SDS011;41716;51.910;4.430;2023-05-13T15:50:24;12.90;;;4.40;;
55794;SDS011;41716;51.910;4.430;2023-05-13T15:55:26;8.35;;;4.22;;
55794;SDS011;41716;51.910;4.430;2023-05-13T16:00:30;10.90;;;4.78;;
55794;SDS011;41716;51.910;4.430;2023-05-13T16:05:32;9.97;;;4.27;;
55794;SDS011;41716;51.910;4.430;2023-05-13T16:10:35;8.77;;;4.70;;
55794;SDS011;41716;51.910;4.430;2023-05-13T16:15:38;10.90;;;4.40;;
55794;SDS011;41716;51.910;4.430;2023-05-13T16:20:40;10.17;;;4.00;;
55794;SDS011;41716;51.910;4.430;2023-05-13T16:25:41;10.15;;;4.97;;
55794;SDS011;41716;51.910;4.430;2023-05-13T16:30:44;10.85;;;4.60;;
55794;SDS011;41716;51.910;4.430;2023-05-13T16:35:46;10.33;;;4.37;;
55794;SDS011;41716;51.910;4.430;2023-05-13T16:40:49;11.02;;;4.32;;
55794;SDS011;41716;51.910;4.430;2023-05-13T16:45:52;10.43;;;4.43;;
55794;SDS011;41716;51.910;4.430;2023-05-13T16:50:54;9.50;;;4.67;;
55794;SDS011;41716;51.910;4.430;2023-05-13T16:55:55;10.32;;;4.68;;
55794;SDS011;41716;51.910;4.430;2023-05-13T17:00:58;11.90;;;4.95;;
55794;SDS011;41716;51.910;4.430;2023-05-13T17:06:00;10.07;;;4.80;;
55794;SDS011;41716;51.910;4.430;2023-05-13T17:11:02;11.38;;;4.32;;
55794;SDS011;41716;51.910;4.430;2023-05-13T17:16:05;10.52;;;5.13;;
55794;SDS011;41716;51.910;4.430;2023-05-13T17:26:09;10.07;;;4.40;;
55794;SDS011;41716;51.910;4.430;2023-05-13T17:31:12;7.57;;;4.18;;
55794;SDS011;41716;51.910;4.430;2023-05-13T17:36:14;8.60;;;3.60;;
55794;SDS011;41716;51.910;4.430;2023-05-13T17:41:16;10.95;;;5.20;;
55794;SDS011;41716;51.910;4.430;2023-05-13T17:46:19;9.18;;;4.95;;
55794;SDS011;41716;51.910;4.430;2023-05-13T17:51:20;9.17;;;4.23;;
55794;SDS011;41716;51.910;4.430;2023-05-13T17:56:22;9.52;;;4.78;;
55794;SDS011;41716;51.910;4.430;2023-05-13T18:01:25;11.35;;;4.70;;
55794;SDS011;41716;51.910;4.430;2023-05-13T18:06:27;10.77;;;4.60;;
55794;SDS011;41716;51.910;4.430;2023-05-13T18:11:29;10.18;;;5.10;;
55794;SDS011;41716;51.910;4.430;2023-05-13T18:16:32;7.20;;;4.43;;
55794;SDS011;41716;51.910;4.430;2023-05-13T18:21:33;12.03;;;5.60;;
55794;SDS011;41716;51.910;4.430;2023-05-13T18:26:35;11.65;;;5.55;;
55794;SDS011;41716;51.910;4.430;2023-05-13T18:31:38;11.13;;;4.95;;
55794;SDS011;41716;51.910;4.430;2023-05-13T18:36:40;12.20;;;5.37;;
55794;SDS011;41716;51.910;4.430;2023-05-13T18:41:41;11.57;;;5.25;;
55794;SDS011;41716;51.910;4.430;2023-05-13T18:46:45;10.20;;;4.95;;
55794;SDS011;41716;51.910;4.430;2023-05-13T18:51:46;10.97;;;4.77;;
55794;SDS011;41716;51.910;4.430;2023-05-13T18:56:48;11.52;;;5.72;;
55794;SDS011;41716;51.910;4.430;2023-05-13T19:01:51;10.98;;;5.15;;
55794;SDS011;41716;51.910;4.430;2023-05-13T19:06:53;12.57;;;4.90;;
55794;SDS011;41716;51.910;4.430;2023-05-13T19:11:55;8.52;;;4.68;;
55794;SDS011;41716;51.910;4.430;2023-05-13T19:16:58;11.00;;;4.97;;
55794;SDS011;41716;51.910;4.430;2023-05-13T19:22:00;10.38;;;5.30;;
55794;SDS011;41716;51.910;4.430;2023-05-13T19:27:01;13.43;;;5.10;;
55794;SDS011;41716;51.910;4.430;2023-05-13T19:32:05;11.95;;;5.45;;
55794;SDS011;41716;51.910;4.430;2023-05-13T19:37:07;9.52;;;5.18;;
55794;SDS011;41716;51.910;4.430;2023-05-13T19:42:09;10.52;;;5.78;;
55794;SDS011;41716;51.910;4.430;2023-05-13T19:47:12;13.30;;;6.05;;
55794;SDS011;41716;51.910;4.430;2023-05-13T19:52:13;11.43;;;5.53;;
55794;SDS011;41716;51.910;4.430;2023-05-13T19:57:15;11.13;;;5.45;;
55794;SDS011;41716;51.910;4.430;2023-05-13T20:02:18;16.60;;;5.68;;
55794;SDS011;41716;51.910;4.430;2023-05-13T20:07:20;11.33;;;6.13;;
55794;SDS011;41716;51.910;4.430;2023-05-13T20:12:22;12.73;;;6.35;;
55794;SDS011;41716;51.910;4.430;2023-05-13T20:17:25;13.88;;;7.03;;
55794;SDS011;41716;51.910;4.430;2023-05-13T20:22:29;18.98;;;6.93;;
55794;SDS011;41716;51.910;4.430;2023-05-13T20:27:30;12.00;;;6.90;;
55794;SDS011;41716;51.910;4.430;2023-05-13T20:32:33;13.38;;;6.78;;
55794;SDS011;41716;51.910;4.430;2023-05-13T20:37:35;15.07;;;7.47;;
55794;SDS011;41716;51.910;4.430;2023-05-13T20:42:37;14.15;;;6.75;;
55794;SDS011;41716;51.910;4.430;2023-05-13T20:47:40;14.30;;;7.32;;
55794;SDS011;41716;51.910;4.430;2023-05-13T20:52:41;12.27;;;7.33;;
55794;SDS011;41716;51.910;4.430;2023-05-13T20:57:43;19.90;;;8.05;;
55794;SDS011;41716;51.910;4.430;2023-05-13T21:02:46;16.05;;;7.57;;
55794;SDS011;41716;51.910;4.430;2023-05-13T21:07:49;14.15;;;7.78;;
55794;SDS011;41716;51.910;4.430;2023-05-13T21:12:51;13.02;;;7.00;;
55794;SDS011;41716;51.910;4.430;2023-05-13T21:17:54;19.80;;;9.43;;
55794;SDS011;41716;51.910;4.430;2023-05-13T21:22:56;15.33;;;8.33;;
55794;SDS011;41716;51.910;4.430;2023-05-13T21:27:57;15.13;;;8.48;;
55794;SDS011;41716;51.910;4.430;2023-05-13T21:33:00;16.58;;;8.20;;
55794;SDS011;41716;51.910;4.430;2023-05-13T21:38:02;15.13;;;8.33;;
55794;SDS011;41716;51.910;4.430;2023-05-13T21:43:04;17.15;;;8.20;;
55794;SDS011;41716;51.910;4.430;2023-05-13T21:48:07;14.93;;;8.70;;
55794;SDS011;41716;51.910;4.430;2023-05-13T21:53:08;14.53;;;8.10;;
55794;SDS011;41716;51.910;4.430;2023-05-13T21:58:10;15.00;;;8.55;;
55794;SDS011;41716;51.910;4.430;2023-05-13T22:03:13;15.50;;;8.52;;
55794;SDS011;41716;51.910;4.430;2023-05-13T22:08:15;15.53;;;8.63;;
55794;SDS011;41716;51.910;4.430;2023-05-13T22:13:17;16.02;;;9.15;;
55794;SDS011;41716;51.910;4.430;2023-05-13T22:18:21;14.73;;;9.13;;
55794;SDS011;41716;51.910;4.430;2023-05-13T22:23:23;19.27;;;9.23;;
55794;SDS011;41716;51.910;4.430;2023-05-13T22:28:25;14.10;;;8.77;;
55794;SDS011;41716;51.910;4.430;2023-05-13T22:33:28;16.63;;;9.25;;
55794;SDS011;41716;51.910;4.430;2023-05-13T22:38:29;15.80;;;10.10;;
55794;SDS011;41716;51.910;4.430;2023-05-13T22:43:31;16.38;;;9.57;;
55794;SDS011;41716;51.910;4.430;2023-05-13T22:48:34;16.85;;;9.35;;
55794;SDS011;41716;51.910;4.430;2023-05-13T22:53:36;16.50;;;8.97;;
55794;SDS011;41716;51.910;4.430;2023-05-13T22:58:37;16.05;;;9.40;;
55794;SDS011;41716;51.910;4.430;2023-05-13T23:03:40;17.45;;;9.00;;
55794;SDS011;41716;51.910;4.430;2023-05-13T23:08:42;17.83;;;9.53;;
55794;SDS011;41716;51.910;4.430;2023-05-13T23:13:44;17.33;;;9.55;;
55794;SDS011;41716;51.910;4.430;2023-05-13T23:18:47;18.75;;;10.40;;
55794;SDS011;41716;51.910;4.430;2023-05-13T23:23:48;18.80;;;9.63;;
55794;SDS011;41716;51.910;4.430;2023-05-13T23:28:51;17.08;;;9.90;;
55794;SDS011;41716;51.910;4.430;2023-05-13T23:33:54;19.77;;;10.52;;
55794;SDS011;41716;51.910;4.430;2023-05-13T23:38:55;16.60;;;10.87;;
55794;SDS011;41716;51.910;4.430;2023-05-13T23:43:57;17.83;;;10.48;;
55794;SDS011;41716;51.910;4.430;2023-05-13T23:49:00;15.45;;;9.27;;
55794;SDS011;41716;51.910;4.430;2023-05-13T23:54:02;17.17;;;9.97;;
55794;SDS011;41716;51.910;4.430;2023-05-13T23:59:03;15.05;;;10.10;;
